sensor_id;sensor_type;location;lat;lon;timestamp;P1;durP1;ratioP1;P2;durP2;ratioP2
75096;SDS011;63684;47.964;11.186;2022-12-18T00:02:10;36.07;;;21.60;;
75096;SDS011;63684;47.964;11.186;2022-12-18T00:04:36;39.53;;;23.20;;
75096;SDS011;63684;47.964;11.186;2022-12-18T00:07:01;37.93;;;22.10;;
75096;SDS011;63684;47.964;11.186;2022-12-18T00:09:28;42.23;;;22.40;;
75096;SDS011;63684;47.964;11.186;2022-12-18T00:11:53;37.73;;;21.73;;
75096;SDS011;63684;47.964;11.186;2022-12-18T00:14:18;41.03;;;23.23;;
75096;SDS011;63684;47.964;11.186;2022-12-18T00:16:44;39.20;;;22.17;;
75096;SDS011;63684;47.964;11.186;2022-12-18T00:19:10;37.63;;;21.97;;
75096;SDS011;63684;47.964;11.186;2022-12-18T00:21:39;35.70;;;21.87;;
75096;SDS011;63684;47.964;11.186;2022-12-18T00:24:06;35.67;;;21.83;;
75096;SDS011;63684;47.964;11.186;2022-12-18T00:26:32;39.33;;;21.80;;
75096;SDS011;63684;47.964;11.186;2022-12-18T00:29:04;34.47;;;21.23;;
75096;SDS011;63684;47.964;11.186;2022-12-18T00:31:35;38.47;;;22.97;;
75096;SDS011;63684;47.964;11.186;2022-12-18T00:34:02;36.83;;;22.43;;
75096;SDS011;63684;47.964;11.186;2022-12-18T00:36:31;35.37;;;21.17;;
75096;SDS011;63684;47.964;11.186;2022-12-18T00:38:59;28.20;;;19.17;;
75096;SDS011;63684;47.964;11.186;2022-12-18T00:41:26;34.33;;;21.23;;
75096;SDS011;63684;47.964;11.186;2022-12-18T00:44:11;33.63;;;20.43;;
75096;SDS011;63684;47.964;11.186;2022-12-18T00:46:38;33.67;;;20.70;;
75096;SDS011;63684;47.964;11.186;2022-12-18T00:49:04;36.70;;;21.83;;
75096;SDS011;63684;47.964;11.186;2022-12-18T00:51:29;33.30;;;19.93;;
75096;SDS011;63684;47.964;11.186;2022-12-18T00:53:56;30.50;;;18.43;;
75096;SDS011;63684;47.964;11.186;2022-12-18T00:56:21;31.47;;;19.77;;
75096;SDS011;63684;47.964;11.186;2022-12-18T00:58:47;35.77;;;20.37;;
75096;SDS011;63684;47.964;11.186;2022-12-18T01:01:13;34.27;;;20.63;;
75096;SDS011;63684;47.964;11.186;2022-12-18T01:03:38;32.73;;;19.30;;
75096;SDS011;63684;47.964;11.186;2022-12-18T01:06:07;30.90;;;19.37;;
75096;SDS011;63684;47.964;11.186;2022-12-18T01:08:34;31.17;;;19.30;;
75096;SDS011;63684;47.964;11.186;2022-12-18T01:11:00;32.77;;;19.57;;
75096;SDS011;63684;47.964;11.186;2022-12-18T01:13:26;29.30;;;19.43;;
75096;SDS011;63684;47.964;11.186;2022-12-18T01:15:52;31.57;;;19.53;;
75096;SDS011;63684;47.964;11.186;2022-12-18T01:18:17;31.13;;;18.33;;
75096;SDS011;63684;47.964;11.186;2022-12-18T01:20:43;27.93;;;17.90;;
75096;SDS011;63684;47.964;11.186;2022-12-18T01:23:08;33.77;;;18.77;;
75096;SDS011;63684;47.964;11.186;2022-12-18T01:25:35;32.07;;;19.03;;
75096;SDS011;63684;47.964;11.186;2022-12-18T01:28:01;30.97;;;18.30;;
75096;SDS011;63684;47.964;11.186;2022-12-18T01:30:27;28.57;;;18.07;;
75096;SDS011;63684;47.964;11.186;2022-12-18T01:32:52;31.93;;;18.93;;
75096;SDS011;63684;47.964;11.186;2022-12-18T01:35:18;28.80;;;18.27;;
75096;SDS011;63684;47.964;11.186;2022-12-18T01:37:45;32.73;;;20.50;;
75096;SDS011;63684;47.964;11.186;2022-12-18T01:40:10;39.30;;;22.53;;
75096;SDS011;63684;47.964;11.186;2022-12-18T01:42:36;32.20;;;19.27;;
75096;SDS011;63684;47.964;11.186;2022-12-18T01:50:04;29.03;;;18.07;;
75096;SDS011;63684;47.964;11.186;2022-12-18T01:52:33;30.60;;;18.47;;
75096;SDS011;63684;47.964;11.186;2022-12-18T01:55:00;33.50;;;18.87;;
75096;SDS011;63684;47.964;11.186;2022-12-18T01:57:27;33.83;;;20.50;;
75096;SDS011;63684;47.964;11.186;2022-12-18T01:59:53;32.40;;;20.03;;
75096;SDS011;63684;47.964;11.186;2022-12-18T02:02:22;34.63;;;20.90;;
75096;SDS011;63684;47.964;11.186;2022-12-18T02:04:48;32.07;;;18.83;;
75096;SDS011;63684;47.964;11.186;2022-12-18T02:09:51;30.67;;;19.73;;
75096;SDS011;63684;47.964;11.186;2022-12-18T02:12:24;30.00;;;19.20;;
75096;SDS011;63684;47.964;11.186;2022-12-18T02:15:06;32.37;;;20.53;;
75096;SDS011;63684;47.964;11.186;2022-12-18T02:28:23;33.63;;;19.50;;
75096;SDS011;63684;47.964;11.186;2022-12-18T02:30:53;34.07;;;19.77;;
75096;SDS011;63684;47.964;11.186;2022-12-18T02:33:24;32.30;;;19.07;;
75096;SDS011;63684;47.964;11.186;2022-12-18T02:35:50;38.40;;;21.93;;
75096;SDS011;63684;47.964;11.186;2022-12-18T02:38:18;35.80;;;20.20;;
75096;SDS011;63684;47.964;11.186;2022-12-18T02:40:47;33.73;;;20.53;;
75096;SDS011;63684;47.964;11.186;2022-12-18T02:43:16;35.37;;;20.33;;
75096;SDS011;63684;47.964;11.186;2022-12-18T02:45:48;32.03;;;19.13;;
75096;SDS011;63684;47.964;11.186;2022-12-18T02:48:18;34.20;;;19.00;;
75096;SDS011;63684;47.964;11.186;2022-12-18T02:50:51;32.53;;;19.30;;
75096;SDS011;63684;47.964;11.186;2022-12-18T02:58:41;32.07;;;18.93;;
75096;SDS011;63684;47.964;11.186;2022-12-18T03:03:59;31.77;;;18.57;;
75096;SDS011;63684;47.964;11.186;2022-12-18T03:06:29;36.57;;;21.53;;
75096;SDS011;63684;47.964;11.186;2022-12-18T03:09:07;37.90;;;22.03;;
75096;SDS011;63684;47.964;11.186;2022-12-18T03:11:36;39.03;;;21.87;;
75096;SDS011;63684;47.964;11.186;2022-12-18T03:14:22;38.10;;;21.50;;
75096;SDS011;63684;47.964;11.186;2022-12-18T03:16:50;40.33;;;22.00;;
75096;SDS011;63684;47.964;11.186;2022-12-18T03:19:19;40.80;;;22.07;;
75096;SDS011;63684;47.964;11.186;2022-12-18T03:21:50;35.73;;;22.57;;
75096;SDS011;63684;47.964;11.186;2022-12-18T03:24:18;35.27;;;19.30;;
75096;SDS011;63684;47.964;11.186;2022-12-18T03:26:47;33.00;;;19.33;;
75096;SDS011;63684;47.964;11.186;2022-12-18T03:29:18;34.63;;;19.27;;
75096;SDS011;63684;47.964;11.186;2022-12-18T03:31:47;31.47;;;17.10;;
75096;SDS011;63684;47.964;11.186;2022-12-18T03:34:19;30.50;;;17.97;;
75096;SDS011;63684;47.964;11.186;2022-12-18T03:36:48;33.73;;;18.60;;
75096;SDS011;63684;47.964;11.186;2022-12-18T03:39:14;31.00;;;18.50;;
75096;SDS011;63684;47.964;11.186;2022-12-18T03:41:44;32.17;;;18.47;;
75096;SDS011;63684;47.964;11.186;2022-12-18T03:47:11;36.27;;;19.90;;
75096;SDS011;63684;47.964;11.186;2022-12-18T03:52:38;33.70;;;18.93;;
75096;SDS011;63684;47.964;11.186;2022-12-18T03:55:08;36.30;;;19.50;;
75096;SDS011;63684;47.964;11.186;2022-12-18T03:57:34;35.80;;;19.00;;
75096;SDS011;63684;47.964;11.186;2022-12-18T04:00:07;35.80;;;18.77;;
75096;SDS011;63684;47.964;11.186;2022-12-18T04:02:54;35.33;;;19.50;;
75096;SDS011;63684;47.964;11.186;2022-12-18T04:05:28;31.53;;;16.07;;
75096;SDS011;63684;47.964;11.186;2022-12-18T04:07:54;33.43;;;18.50;;
75096;SDS011;63684;47.964;11.186;2022-12-18T04:10:21;29.70;;;16.50;;
75096;SDS011;63684;47.964;11.186;2022-12-18T04:12:47;31.33;;;16.40;;
75096;SDS011;63684;47.964;11.186;2022-12-18T04:15:14;31.37;;;18.07;;
75096;SDS011;63684;47.964;11.186;2022-12-18T04:17:43;27.27;;;16.10;;
75096;SDS011;63684;47.964;11.186;2022-12-18T04:20:13;31.43;;;18.10;;
75096;SDS011;63684;47.964;11.186;2022-12-18T04:22:42;34.03;;;17.53;;
75096;SDS011;63684;47.964;11.186;2022-12-18T04:25:07;31.93;;;17.93;;
75096;SDS011;63684;47.964;11.186;2022-12-18T04:27:38;31.87;;;17.83;;
75096;SDS011;63684;47.964;11.186;2022-12-18T04:30:04;35.40;;;20.27;;
75096;SDS011;63684;47.964;11.186;2022-12-18T04:32:32;31.97;;;17.37;;
75096;SDS011;63684;47.964;11.186;2022-12-18T04:34:59;30.67;;;18.07;;
75096;SDS011;63684;47.964;11.186;2022-12-18T04:37:24;32.60;;;17.43;;
75096;SDS011;63684;47.964;11.186;2022-12-18T04:39:50;31.77;;;18.40;;
75096;SDS011;63684;47.964;11.186;2022-12-18T04:42:23;32.17;;;17.67;;
75096;SDS011;63684;47.964;11.186;2022-12-18T04:44:48;30.37;;;17.00;;
75096;SDS011;63684;47.964;11.186;2022-12-18T04:47:14;29.23;;;17.30;;
75096;SDS011;63684;47.964;11.186;2022-12-18T04:49:39;30.97;;;17.03;;
75096;SDS011;63684;47.964;11.186;2022-12-18T04:52:05;31.30;;;17.60;;
75096;SDS011;63684;47.964;11.186;2022-12-18T04:54:31;33.17;;;17.83;;
75096;SDS011;63684;47.964;11.186;2022-12-18T04:56:57;32.20;;;17.10;;
75096;SDS011;63684;47.964;11.186;2022-12-18T04:59:22;28.27;;;16.73;;
75096;SDS011;63684;47.964;11.186;2022-12-18T05:01:47;30.57;;;18.53;;
75096;SDS011;63684;47.964;11.186;2022-12-18T05:04:13;34.30;;;17.70;;
75096;SDS011;63684;47.964;11.186;2022-12-18T05:06:38;34.03;;;17.43;;
75096;SDS011;63684;47.964;11.186;2022-12-18T05:09:04;34.67;;;18.57;;
75096;SDS011;63684;47.964;11.186;2022-12-18T05:11:29;30.07;;;17.83;;
75096;SDS011;63684;47.964;11.186;2022-12-18T05:13:54;29.37;;;16.33;;
75096;SDS011;63684;47.964;11.186;2022-12-18T05:16:20;30.83;;;17.73;;
75096;SDS011;63684;47.964;11.186;2022-12-18T05:18:45;34.50;;;17.87;;
75096;SDS011;63684;47.964;11.186;2022-12-18T05:21:11;36.20;;;18.90;;
75096;SDS011;63684;47.964;11.186;2022-12-18T05:23:36;36.80;;;18.23;;
75096;SDS011;63684;47.964;11.186;2022-12-18T05:26:03;36.13;;;19.07;;
75096;SDS011;63684;47.964;11.186;2022-12-18T05:28:30;41.20;;;20.17;;
75096;SDS011;63684;47.964;11.186;2022-12-18T05:30:58;35.57;;;19.33;;
75096;SDS011;63684;47.964;11.186;2022-12-18T05:33:25;37.67;;;20.77;;
75096;SDS011;63684;47.964;11.186;2022-12-18T05:35:52;38.80;;;20.03;;
75096;SDS011;63684;47.964;11.186;2022-12-18T05:38:19;35.43;;;19.20;;
75096;SDS011;63684;47.964;11.186;2022-12-18T05:40:45;35.07;;;18.83;;
75096;SDS011;63684;47.964;11.186;2022-12-18T05:43:11;34.07;;;19.10;;
75096;SDS011;63684;47.964;11.186;2022-12-18T05:45:37;32.53;;;17.60;;
75096;SDS011;63684;47.964;11.186;2022-12-18T05:48:03;34.60;;;18.07;;
75096;SDS011;63684;47.964;11.186;2022-12-18T05:50:29;32.40;;;17.20;;
75096;SDS011;63684;47.964;11.186;2022-12-18T05:53:00;38.27;;;20.23;;
75096;SDS011;63684;47.964;11.186;2022-12-18T05:55:25;33.97;;;18.53;;
75096;SDS011;63684;47.964;11.186;2022-12-18T05:57:51;30.47;;;17.63;;
75096;SDS011;63684;47.964;11.186;2022-12-18T06:00:16;33.93;;;17.60;;
75096;SDS011;63684;47.964;11.186;2022-12-18T06:02:42;33.67;;;19.33;;
75096;SDS011;63684;47.964;11.186;2022-12-18T06:05:07;33.30;;;18.20;;
75096;SDS011;63684;47.964;11.186;2022-12-18T06:07:34;34.07;;;16.57;;
75096;SDS011;63684;47.964;11.186;2022-12-18T06:09:59;33.30;;;17.80;;
75096;SDS011;63684;47.964;11.186;2022-12-18T06:12:24;28.93;;;15.93;;
75096;SDS011;63684;47.964;11.186;2022-12-18T06:14:50;32.07;;;18.13;;
75096;SDS011;63684;47.964;11.186;2022-12-18T06:17:15;32.93;;;19.80;;
75096;SDS011;63684;47.964;11.186;2022-12-18T06:19:41;32.70;;;18.37;;
75096;SDS011;63684;47.964;11.186;2022-12-18T06:22:06;36.23;;;19.07;;
75096;SDS011;63684;47.964;11.186;2022-12-18T06:24:31;35.33;;;19.03;;
75096;SDS011;63684;47.964;11.186;2022-12-18T06:26:58;36.87;;;18.57;;
75096;SDS011;63684;47.964;11.186;2022-12-18T06:29:23;31.97;;;17.73;;
75096;SDS011;63684;47.964;11.186;2022-12-18T06:31:48;36.53;;;19.40;;
75096;SDS011;63684;47.964;11.186;2022-12-18T06:34:14;33.73;;;18.63;;
75096;SDS011;63684;47.964;11.186;2022-12-18T06:36:39;32.37;;;18.17;;
75096;SDS011;63684;47.964;11.186;2022-12-18T06:39:05;32.10;;;18.30;;
75096;SDS011;63684;47.964;11.186;2022-12-18T06:41:30;38.87;;;19.73;;
75096;SDS011;63684;47.964;11.186;2022-12-18T06:43:57;35.27;;;19.00;;
75096;SDS011;63684;47.964;11.186;2022-12-18T06:46:22;33.77;;;19.10;;
75096;SDS011;63684;47.964;11.186;2022-12-18T06:48:48;37.90;;;19.80;;
75096;SDS011;63684;47.964;11.186;2022-12-18T06:51:15;36.33;;;19.43;;
75096;SDS011;63684;47.964;11.186;2022-12-18T06:53:42;34.70;;;18.13;;
75096;SDS011;63684;47.964;11.186;2022-12-18T06:56:07;34.73;;;19.10;;
75096;SDS011;63684;47.964;11.186;2022-12-18T06:58:33;31.97;;;16.70;;
75096;SDS011;63684;47.964;11.186;2022-12-18T07:01:08;34.70;;;18.53;;
75096;SDS011;63684;47.964;11.186;2022-12-18T07:03:36;32.97;;;17.80;;
75096;SDS011;63684;47.964;11.186;2022-12-18T07:06:02;38.00;;;19.70;;
75096;SDS011;63684;47.964;11.186;2022-12-18T07:08:29;30.03;;;17.73;;
75096;SDS011;63684;47.964;11.186;2022-12-18T07:10:55;36.00;;;18.67;;
75096;SDS011;63684;47.964;11.186;2022-12-18T07:13:20;36.27;;;19.33;;
75096;SDS011;63684;47.964;11.186;2022-12-18T07:15:46;33.97;;;17.73;;
75096;SDS011;63684;47.964;11.186;2022-12-18T07:18:12;33.77;;;17.57;;
75096;SDS011;63684;47.964;11.186;2022-12-18T07:20:37;35.97;;;19.20;;
75096;SDS011;63684;47.964;11.186;2022-12-18T07:23:03;29.57;;;18.23;;
75096;SDS011;63684;47.964;11.186;2022-12-18T07:25:32;28.60;;;17.20;;
75096;SDS011;63684;47.964;11.186;2022-12-18T07:27:59;34.00;;;18.57;;
75096;SDS011;63684;47.964;11.186;2022-12-18T07:30:24;35.47;;;18.20;;
75096;SDS011;63684;47.964;11.186;2022-12-18T07:32:50;36.43;;;18.57;;
75096;SDS011;63684;47.964;11.186;2022-12-18T07:35:15;33.63;;;19.03;;
75096;SDS011;63684;47.964;11.186;2022-12-18T07:37:41;30.63;;;17.23;;
75096;SDS011;63684;47.964;11.186;2022-12-18T07:40:07;37.03;;;19.10;;
75096;SDS011;63684;47.964;11.186;2022-12-18T07:42:33;32.83;;;17.23;;
75096;SDS011;63684;47.964;11.186;2022-12-18T07:44:59;33.07;;;19.00;;
75096;SDS011;63684;47.964;11.186;2022-12-18T07:47:26;30.97;;;17.23;;
75096;SDS011;63684;47.964;11.186;2022-12-18T07:49:52;33.70;;;17.93;;
75096;SDS011;63684;47.964;11.186;2022-12-18T07:52:18;32.53;;;17.47;;
75096;SDS011;63684;47.964;11.186;2022-12-18T07:54:43;33.60;;;18.97;;
75096;SDS011;63684;47.964;11.186;2022-12-18T07:57:09;30.93;;;19.17;;
75096;SDS011;63684;47.964;11.186;2022-12-18T07:59:34;33.43;;;18.53;;
75096;SDS011;63684;47.964;11.186;2022-12-18T08:02:00;31.90;;;17.77;;
75096;SDS011;63684;47.964;11.186;2022-12-18T08:04:26;27.50;;;16.93;;
75096;SDS011;63684;47.964;11.186;2022-12-18T08:06:51;32.73;;;18.47;;
75096;SDS011;63684;47.964;11.186;2022-12-18T08:09:17;32.20;;;19.20;;
75096;SDS011;63684;47.964;11.186;2022-12-18T08:11:42;34.63;;;19.60;;
75096;SDS011;63684;47.964;11.186;2022-12-18T08:14:08;35.13;;;20.60;;
75096;SDS011;63684;47.964;11.186;2022-12-18T08:16:33;27.33;;;17.63;;
75096;SDS011;63684;47.964;11.186;2022-12-18T08:18:59;31.63;;;17.30;;
75096;SDS011;63684;47.964;11.186;2022-12-18T08:21:25;36.90;;;19.40;;
75096;SDS011;63684;47.964;11.186;2022-12-18T08:23:53;28.73;;;17.50;;
75096;SDS011;63684;47.964;11.186;2022-12-18T08:26:20;30.77;;;17.83;;
75096;SDS011;63684;47.964;11.186;2022-12-18T08:28:46;32.87;;;18.77;;
75096;SDS011;63684;47.964;11.186;2022-12-18T08:31:11;30.93;;;18.50;;
75096;SDS011;63684;47.964;11.186;2022-12-18T08:33:37;30.00;;;18.73;;
75096;SDS011;63684;47.964;11.186;2022-12-18T08:36:04;27.43;;;17.27;;
75096;SDS011;63684;47.964;11.186;2022-12-18T08:38:33;31.13;;;17.67;;
75096;SDS011;63684;47.964;11.186;2022-12-18T08:40:59;32.97;;;19.03;;
75096;SDS011;63684;47.964;11.186;2022-12-18T08:43:29;58.93;;;31.17;;
75096;SDS011;63684;47.964;11.186;2022-12-18T08:46:14;28.80;;;18.17;;
75096;SDS011;63684;47.964;11.186;2022-12-18T08:48:39;31.83;;;18.10;;
75096;SDS011;63684;47.964;11.186;2022-12-18T08:51:05;31.53;;;17.30;;
75096;SDS011;63684;47.964;11.186;2022-12-18T08:53:30;28.40;;;17.33;;
75096;SDS011;63684;47.964;11.186;2022-12-18T08:55:56;34.50;;;19.13;;
75096;SDS011;63684;47.964;11.186;2022-12-18T08:58:22;54.43;;;29.23;;
75096;SDS011;63684;47.964;11.186;2022-12-18T09:00:47;41.60;;;23.57;;
75096;SDS011;63684;47.964;11.186;2022-12-18T09:03:13;34.13;;;18.97;;
75096;SDS011;63684;47.964;11.186;2022-12-18T09:05:39;28.00;;;16.83;;
75096;SDS011;63684;47.964;11.186;2022-12-18T09:08:04;29.43;;;18.23;;
75096;SDS011;63684;47.964;11.186;2022-12-18T09:10:31;29.57;;;17.23;;
75096;SDS011;63684;47.964;11.186;2022-12-18T09:12:57;30.23;;;18.03;;
75096;SDS011;63684;47.964;11.186;2022-12-18T09:15:22;32.93;;;19.33;;
75096;SDS011;63684;47.964;11.186;2022-12-18T09:17:47;28.37;;;17.57;;
75096;SDS011;63684;47.964;11.186;2022-12-18T09:20:15;36.60;;;19.80;;
75096;SDS011;63684;47.964;11.186;2022-12-18T09:22:41;29.13;;;17.50;;
75096;SDS011;63684;47.964;11.186;2022-12-18T09:25:06;33.00;;;18.27;;
75096;SDS011;63684;47.964;11.186;2022-12-18T09:27:34;32.90;;;18.97;;
75096;SDS011;63684;47.964;11.186;2022-12-18T09:30:00;29.50;;;16.97;;
75096;SDS011;63684;47.964;11.186;2022-12-18T09:32:28;29.00;;;17.37;;
75096;SDS011;63684;47.964;11.186;2022-12-18T09:34:53;29.13;;;18.43;;
75096;SDS011;63684;47.964;11.186;2022-12-18T09:37:18;27.73;;;16.10;;
75096;SDS011;63684;47.964;11.186;2022-12-18T09:39:44;27.63;;;17.77;;
75096;SDS011;63684;47.964;11.186;2022-12-18T09:42:14;31.67;;;18.13;;
75096;SDS011;63684;47.964;11.186;2022-12-18T09:44:45;30.50;;;18.23;;
75096;SDS011;63684;47.964;11.186;2022-12-18T09:47:21;30.27;;;18.13;;
75096;SDS011;63684;47.964;11.186;2022-12-18T09:49:49;28.03;;;17.23;;
75096;SDS011;63684;47.964;11.186;2022-12-18T09:52:25;31.23;;;17.13;;
75096;SDS011;63684;47.964;11.186;2022-12-18T09:55:05;25.93;;;17.30;;
75096;SDS011;63684;47.964;11.186;2022-12-18T09:57:34;27.03;;;16.97;;
75096;SDS011;63684;47.964;11.186;2022-12-18T10:00:25;30.23;;;20.37;;
75096;SDS011;63684;47.964;11.186;2022-12-18T10:02:52;27.30;;;17.00;;
75096;SDS011;63684;47.964;11.186;2022-12-18T10:08:02;26.73;;;16.67;;
75096;SDS011;63684;47.964;11.186;2022-12-18T10:13:11;26.70;;;15.33;;
75096;SDS011;63684;47.964;11.186;2022-12-18T10:21:34;24.77;;;16.13;;
75096;SDS011;63684;47.964;11.186;2022-12-18T10:26:47;22.40;;;14.73;;
75096;SDS011;63684;47.964;11.186;2022-12-18T10:29:14;21.73;;;13.93;;
75096;SDS011;63684;47.964;11.186;2022-12-18T10:31:40;22.90;;;14.73;;
75096;SDS011;63684;47.964;11.186;2022-12-18T10:34:12;25.00;;;16.30;;
75096;SDS011;63684;47.964;11.186;2022-12-18T10:36:37;21.30;;;14.53;;
75096;SDS011;63684;47.964;11.186;2022-12-18T10:41:42;22.97;;;13.53;;
75096;SDS011;63684;47.964;11.186;2022-12-18T10:44:11;22.67;;;14.10;;
75096;SDS011;63684;47.964;11.186;2022-12-18T10:46:44;21.23;;;13.53;;
75096;SDS011;63684;47.964;11.186;2022-12-18T10:49:24;20.53;;;13.53;;
75096;SDS011;63684;47.964;11.186;2022-12-18T10:51:51;22.50;;;14.50;;
75096;SDS011;63684;47.964;11.186;2022-12-18T10:54:25;21.43;;;13.73;;
75096;SDS011;63684;47.964;11.186;2022-12-18T10:56:52;23.50;;;14.97;;
75096;SDS011;63684;47.964;11.186;2022-12-18T10:59:49;21.87;;;13.20;;
75096;SDS011;63684;47.964;11.186;2022-12-18T11:04:52;26.93;;;15.93;;
75096;SDS011;63684;47.964;11.186;2022-12-18T11:07:18;23.43;;;14.63;;
75096;SDS011;63684;47.964;11.186;2022-12-18T11:09:43;22.37;;;14.50;;
75096;SDS011;63684;47.964;11.186;2022-12-18T11:17:22;22.10;;;14.17;;
75096;SDS011;63684;47.964;11.186;2022-12-18T11:19:54;24.57;;;14.83;;
75096;SDS011;63684;47.964;11.186;2022-12-18T11:22:27;22.70;;;14.40;;
75096;SDS011;63684;47.964;11.186;2022-12-18T11:24:55;20.93;;;13.97;;
75096;SDS011;63684;47.964;11.186;2022-12-18T11:27:26;23.50;;;14.43;;
75096;SDS011;63684;47.964;11.186;2022-12-18T11:29:52;22.27;;;14.73;;
75096;SDS011;63684;47.964;11.186;2022-12-18T11:35:01;24.47;;;15.20;;
75096;SDS011;63684;47.964;11.186;2022-12-18T11:37:31;22.20;;;14.50;;
75096;SDS011;63684;47.964;11.186;2022-12-18T11:39:59;25.03;;;14.30;;
75096;SDS011;63684;47.964;11.186;2022-12-18T11:47:46;24.90;;;14.93;;
75096;SDS011;63684;47.964;11.186;2022-12-18T11:50:19;23.17;;;14.63;;
75096;SDS011;63684;47.964;11.186;2022-12-18T11:52:47;23.87;;;15.70;;
75096;SDS011;63684;47.964;11.186;2022-12-18T11:55:17;23.97;;;15.83;;
75096;SDS011;63684;47.964;11.186;2022-12-18T11:58:00;24.83;;;14.93;;
75096;SDS011;63684;47.964;11.186;2022-12-18T12:00:28;22.07;;;13.87;;
75096;SDS011;63684;47.964;11.186;2022-12-18T12:08:26;22.50;;;13.93;;
75096;SDS011;63684;47.964;11.186;2022-12-18T12:13:37;20.60;;;13.60;;
75096;SDS011;63684;47.964;11.186;2022-12-18T12:16:40;22.47;;;15.20;;
75096;SDS011;63684;47.964;11.186;2022-12-18T12:21:45;22.50;;;14.33;;
75096;SDS011;63684;47.964;11.186;2022-12-18T12:26:49;24.40;;;14.60;;
75096;SDS011;63684;47.964;11.186;2022-12-18T12:32:22;23.23;;;15.90;;
75096;SDS011;63684;47.964;11.186;2022-12-18T12:35:37;22.33;;;16.00;;
75096;SDS011;63684;47.964;11.186;2022-12-18T12:40:35;20.67;;;14.40;;
75096;SDS011;63684;47.964;11.186;2022-12-18T12:43:10;23.77;;;13.63;;
75096;SDS011;63684;47.964;11.186;2022-12-18T12:48:34;22.70;;;14.13;;
75096;SDS011;63684;47.964;11.186;2022-12-18T12:51:02;21.83;;;13.53;;
75096;SDS011;63684;47.964;11.186;2022-12-18T12:53:34;22.50;;;14.47;;
75096;SDS011;63684;47.964;11.186;2022-12-18T12:56:01;19.33;;;13.67;;
75096;SDS011;63684;47.964;11.186;2022-12-18T13:01:13;21.30;;;12.57;;
75096;SDS011;63684;47.964;11.186;2022-12-18T13:06:29;23.53;;;14.00;;
75096;SDS011;63684;47.964;11.186;2022-12-18T13:09:01;20.30;;;13.57;;
75096;SDS011;63684;47.964;11.186;2022-12-18T13:14:23;19.90;;;13.17;;
75096;SDS011;63684;47.964;11.186;2022-12-18T13:17:13;23.67;;;14.73;;
75096;SDS011;63684;47.964;11.186;2022-12-18T13:19:39;19.97;;;13.97;;
75096;SDS011;63684;47.964;11.186;2022-12-18T13:22:12;26.17;;;15.40;;
75096;SDS011;63684;47.964;11.186;2022-12-18T13:24:49;26.37;;;14.87;;
75096;SDS011;63684;47.964;11.186;2022-12-18T13:30:33;24.30;;;16.00;;
75096;SDS011;63684;47.964;11.186;2022-12-18T13:41:00;23.43;;;14.40;;
75096;SDS011;63684;47.964;11.186;2022-12-18T13:43:27;28.43;;;15.30;;
75096;SDS011;63684;47.964;11.186;2022-12-18T13:48:30;25.77;;;14.53;;
75096;SDS011;63684;47.964;11.186;2022-12-18T13:51:05;23.23;;;14.87;;
75096;SDS011;63684;47.964;11.186;2022-12-18T13:53:34;23.93;;;14.33;;
75096;SDS011;63684;47.964;11.186;2022-12-18T13:56:03;28.10;;;16.10;;
75096;SDS011;63684;47.964;11.186;2022-12-18T13:58:29;24.20;;;14.53;;
75096;SDS011;63684;47.964;11.186;2022-12-18T14:00:54;29.10;;;14.87;;
75096;SDS011;63684;47.964;11.186;2022-12-18T14:03:21;26.67;;;15.57;;
75096;SDS011;63684;47.964;11.186;2022-12-18T14:06:07;26.17;;;15.13;;
75096;SDS011;63684;47.964;11.186;2022-12-18T14:08:34;23.10;;;13.63;;
75096;SDS011;63684;47.964;11.186;2022-12-18T14:11:02;24.77;;;14.97;;
75096;SDS011;63684;47.964;11.186;2022-12-18T14:13:30;24.83;;;14.90;;
75096;SDS011;63684;47.964;11.186;2022-12-18T14:15:57;23.60;;;14.23;;
75096;SDS011;63684;47.964;11.186;2022-12-18T14:21:14;27.80;;;15.73;;
75096;SDS011;63684;47.964;11.186;2022-12-18T14:23:42;27.20;;;16.03;;
75096;SDS011;63684;47.964;11.186;2022-12-18T14:26:26;26.83;;;15.00;;
75096;SDS011;63684;47.964;11.186;2022-12-18T14:28:58;27.77;;;16.50;;
75096;SDS011;63684;47.964;11.186;2022-12-18T14:31:27;31.00;;;17.80;;
75096;SDS011;63684;47.964;11.186;2022-12-18T14:33:54;34.40;;;18.40;;
75096;SDS011;63684;47.964;11.186;2022-12-18T14:36:21;31.53;;;18.00;;
75096;SDS011;63684;47.964;11.186;2022-12-18T14:38:51;34.83;;;20.37;;
75096;SDS011;63684;47.964;11.186;2022-12-18T14:41:22;33.97;;;19.47;;
75096;SDS011;63684;47.964;11.186;2022-12-18T14:43:48;35.07;;;20.00;;
75096;SDS011;63684;47.964;11.186;2022-12-18T14:46:25;33.33;;;18.80;;
75096;SDS011;63684;47.964;11.186;2022-12-18T14:48:54;32.03;;;18.13;;
75096;SDS011;63684;47.964;11.186;2022-12-18T14:51:21;31.60;;;18.03;;
75096;SDS011;63684;47.964;11.186;2022-12-18T14:53:55;31.83;;;18.13;;
75096;SDS011;63684;47.964;11.186;2022-12-18T14:58:51;37.50;;;20.60;;
75096;SDS011;63684;47.964;11.186;2022-12-18T15:01:27;31.40;;;18.50;;
75096;SDS011;63684;47.964;11.186;2022-12-18T15:03:54;34.70;;;20.37;;
75096;SDS011;63684;47.964;11.186;2022-12-18T15:06:41;34.20;;;19.07;;
75096;SDS011;63684;47.964;11.186;2022-12-18T15:09:23;32.50;;;18.17;;
75096;SDS011;63684;47.964;11.186;2022-12-18T15:11:54;33.93;;;19.20;;
75096;SDS011;63684;47.964;11.186;2022-12-18T15:14:30;30.97;;;18.33;;
75096;SDS011;63684;47.964;11.186;2022-12-18T15:17:16;34.07;;;18.60;;
75096;SDS011;63684;47.964;11.186;2022-12-18T15:19:43;31.67;;;18.20;;
75096;SDS011;63684;47.964;11.186;2022-12-18T15:24:55;30.10;;;17.73;;
75096;SDS011;63684;47.964;11.186;2022-12-18T15:27:26;30.10;;;16.70;;
75096;SDS011;63684;47.964;11.186;2022-12-18T15:32:34;35.53;;;18.70;;
75096;SDS011;63684;47.964;11.186;2022-12-18T15:35:02;32.00;;;17.93;;
75096;SDS011;63684;47.964;11.186;2022-12-18T15:37:34;33.70;;;18.63;;
75096;SDS011;63684;47.964;11.186;2022-12-18T15:39:59;31.60;;;18.37;;
75096;SDS011;63684;47.964;11.186;2022-12-18T15:42:25;29.67;;;17.37;;
75096;SDS011;63684;47.964;11.186;2022-12-18T15:45:12;32.97;;;18.00;;
75096;SDS011;63684;47.964;11.186;2022-12-18T15:47:38;31.33;;;18.70;;
75096;SDS011;63684;47.964;11.186;2022-12-18T15:50:04;34.00;;;19.07;;
75096;SDS011;63684;47.964;11.186;2022-12-18T15:52:31;39.00;;;19.30;;
75096;SDS011;63684;47.964;11.186;2022-12-18T15:55:05;34.63;;;20.10;;
75096;SDS011;63684;47.964;11.186;2022-12-18T15:57:57;33.77;;;17.87;;
75096;SDS011;63684;47.964;11.186;2022-12-18T16:00:23;34.03;;;19.00;;
75096;SDS011;63684;47.964;11.186;2022-12-18T16:02:49;34.87;;;19.27;;
75096;SDS011;63684;47.964;11.186;2022-12-18T16:05:14;29.47;;;17.53;;
75096;SDS011;63684;47.964;11.186;2022-12-18T16:07:42;32.67;;;18.43;;
75096;SDS011;63684;47.964;11.186;2022-12-18T16:10:09;36.00;;;20.43;;
75096;SDS011;63684;47.964;11.186;2022-12-18T16:12:34;32.30;;;18.93;;
75096;SDS011;63684;47.964;11.186;2022-12-18T16:15:00;35.67;;;19.47;;
75096;SDS011;63684;47.964;11.186;2022-12-18T16:17:26;36.50;;;21.53;;